Terminal Aerodrome Forecast
Issued by NWS

Home | Current Version | Previous Version | Text Only | Print | Product List | Glossary On
Versions: 1 2 3 4 5 6 7 8 9 10 11 12 13 14 15 16 17 18 19 20 21 22 23 24 25 26 27 28 29 30 31 32 33 34 35 36 37 38 39 40 41 42 43 44
294
FTUS46 KOTX 191738
TAFSFF
TAF
KSFF 191738Z 1918/2018 16004KT P6SM BKN025 OVC060
     FM192000 21006KT P6SM -SHRA SCT035 BKN050
     FM200000 22004KT P6SM SCT045 BKN070
     FM200800 VRB03KT P6SM -SHRA OVC015
     FM201200 10003KT 5SM BR BKN012 OVC020
     FM201600 11002KT 6SM -RA BR BKN007 OVC010=

USA.gov is the U.S. government's official web portal to all federal, state and local government web resources and services.